sensor_id;sensor_type;location;lat;lon;timestamp;P1;durP1;ratioP1;P2;durP2;ratioP2
10430;SDS011;5262;59.958;17.726;2022-11-15T00:02:21;2.10;;;1.90;;
10430;SDS011;5262;59.958;17.726;2022-11-15T00:04:47;1.70;;;1.60;;
10430;SDS011;5262;59.958;17.726;2022-11-15T00:07:12;2.00;;;1.60;;
10430;SDS011;5262;59.958;17.726;2022-11-15T00:09:38;1.70;;;1.60;;
10430;SDS011;5262;59.958;17.726;2022-11-15T00:12:04;1.23;;;1.13;;
10430;SDS011;5262;59.958;17.726;2022-11-15T00:14:29;1.53;;;1.43;;
10430;SDS011;5262;59.958;17.726;2022-11-15T00:16:55;1.87;;;1.70;;
10430;SDS011;5262;59.958;17.726;2022-11-15T00:19:21;1.83;;;1.73;;
10430;SDS011;5262;59.958;17.726;2022-11-15T00:21:46;3.53;;;1.80;;
10430;SDS011;5262;59.958;17.726;2022-11-15T00:24:12;3.60;;;1.90;;
10430;SDS011;5262;59.958;17.726;2022-11-15T00:26:37;2.27;;;2.00;;
10430;SDS011;5262;59.958;17.726;2022-11-15T00:29:03;2.63;;;2.37;;
10430;SDS011;5262;59.958;17.726;2022-11-15T00:31:29;2.23;;;2.03;;
10430;SDS011;5262;59.958;17.726;2022-11-15T00:33:54;2.60;;;2.30;;
10430;SDS011;5262;59.958;17.726;2022-11-15T00:36:20;2.53;;;2.20;;
10430;SDS011;5262;59.958;17.726;2022-11-15T00:38:46;3.60;;;2.33;;
10430;SDS011;5262;59.958;17.726;2022-11-15T00:41:11;6.37;;;2.53;;
10430;SDS011;5262;59.958;17.726;2022-11-15T00:43:37;10.30;;;2.90;;
10430;SDS011;5262;59.958;17.726;2022-11-15T00:46:04;2.93;;;2.60;;
10430;SDS011;5262;59.958;17.726;2022-11-15T00:48:31;5.40;;;2.40;;
10430;SDS011;5262;59.958;17.726;2022-11-15T00:50:57;3.60;;;2.40;;
10430;SDS011;5262;59.958;17.726;2022-11-15T00:53:23;2.33;;;2.13;;
10430;SDS011;5262;59.958;17.726;2022-11-15T00:55:48;7.60;;;2.07;;
10430;SDS011;5262;59.958;17.726;2022-11-15T00:58:14;4.67;;;2.57;;
10430;SDS011;5262;59.958;17.726;2022-11-15T01:00:39;4.63;;;2.50;;
10430;SDS011;5262;59.958;17.726;2022-11-15T01:03:05;5.93;;;2.20;;
10430;SDS011;5262;59.958;17.726;2022-11-15T01:05:31;5.60;;;2.23;;
10430;SDS011;5262;59.958;17.726;2022-11-15T01:07:56;7.83;;;2.10;;
10430;SDS011;5262;59.958;17.726;2022-11-15T01:10:22;17.23;;;2.80;;
10430;SDS011;5262;59.958;17.726;2022-11-15T01:12:48;7.40;;;2.80;;
10430;SDS011;5262;59.958;17.726;2022-11-15T01:15:14;7.10;;;3.33;;
10430;SDS011;5262;59.958;17.726;2022-11-15T01:17:40;3.90;;;2.70;;
10430;SDS011;5262;59.958;17.726;2022-11-15T01:20:06;3.87;;;2.17;;
10430;SDS011;5262;59.958;17.726;2022-11-15T01:22:32;1.93;;;1.77;;
10430;SDS011;5262;59.958;17.726;2022-11-15T01:24:58;2.00;;;1.80;;
10430;SDS011;5262;59.958;17.726;2022-11-15T01:27:24;2.17;;;1.80;;
10430;SDS011;5262;59.958;17.726;2022-11-15T01:29:49;1.80;;;1.67;;
10430;SDS011;5262;59.958;17.726;2022-11-15T01:32:15;2.27;;;1.73;;
10430;SDS011;5262;59.958;17.726;2022-11-15T01:34:41;2.70;;;1.80;;
10430;SDS011;5262;59.958;17.726;2022-11-15T01:37:07;2.00;;;1.80;;
10430;SDS011;5262;59.958;17.726;2022-11-15T01:39:32;2.13;;;1.93;;
10430;SDS011;5262;59.958;17.726;2022-11-15T01:41:58;1.83;;;1.60;;
10430;SDS011;5262;59.958;17.726;2022-11-15T01:46:56;1.60;;;1.50;;
10430;SDS011;5262;59.958;17.726;2022-11-15T01:49:23;1.73;;;1.50;;
10430;SDS011;5262;59.958;17.726;2022-11-15T01:51:51;1.93;;;1.77;;
10430;SDS011;5262;59.958;17.726;2022-11-15T01:54:18;2.83;;;1.70;;
10430;SDS011;5262;59.958;17.726;2022-11-15T01:56:48;2.40;;;2.20;;
10430;SDS011;5262;59.958;17.726;2022-11-15T01:59:20;2.80;;;2.43;;
10430;SDS011;5262;59.958;17.726;2022-11-15T02:01:46;4.30;;;2.30;;
10430;SDS011;5262;59.958;17.726;2022-11-15T02:04:20;6.33;;;2.80;;
10430;SDS011;5262;59.958;17.726;2022-11-15T02:06:51;2.27;;;2.07;;
10430;SDS011;5262;59.958;17.726;2022-11-15T02:09:17;4.57;;;2.70;;
10430;SDS011;5262;59.958;17.726;2022-11-15T02:11:42;6.10;;;3.13;;
10430;SDS011;5262;59.958;17.726;2022-11-15T02:14:10;3.50;;;3.20;;
10430;SDS011;5262;59.958;17.726;2022-11-15T02:16:51;2.80;;;2.60;;
10430;SDS011;5262;59.958;17.726;2022-11-15T02:31:03;3.77;;;2.67;;
10430;SDS011;5262;59.958;17.726;2022-11-15T02:33:46;4.80;;;2.50;;
10430;SDS011;5262;59.958;17.726;2022-11-15T02:39:44;3.30;;;2.33;;
10430;SDS011;5262;59.958;17.726;2022-11-15T02:42:14;3.30;;;2.70;;
10430;SDS011;5262;59.958;17.726;2022-11-15T02:45:10;3.10;;;2.63;;
10430;SDS011;5262;59.958;17.726;2022-11-15T02:47:41;4.87;;;3.43;;
10430;SDS011;5262;59.958;17.726;2022-11-15T02:50:11;6.90;;;3.90;;
10430;SDS011;5262;59.958;17.726;2022-11-15T02:52:40;6.00;;;4.40;;
10430;SDS011;5262;59.958;17.726;2022-11-15T02:58:23;5.83;;;4.43;;
10430;SDS011;5262;59.958;17.726;2022-11-15T03:06:32;10.67;;;5.33;;
10430;SDS011;5262;59.958;17.726;2022-11-15T03:11:47;11.80;;;5.90;;
10430;SDS011;5262;59.958;17.726;2022-11-15T03:14:32;8.20;;;5.43;;
10430;SDS011;5262;59.958;17.726;2022-11-15T03:19:32;7.00;;;5.30;;
10430;SDS011;5262;59.958;17.726;2022-11-15T03:22:09;11.90;;;5.80;;
10430;SDS011;5262;59.958;17.726;2022-11-15T03:24:39;6.20;;;5.13;;
10430;SDS011;5262;59.958;17.726;2022-11-15T03:27:08;12.07;;;5.80;;
10430;SDS011;5262;59.958;17.726;2022-11-15T03:29:38;8.63;;;5.10;;
10430;SDS011;5262;59.958;17.726;2022-11-15T03:32:09;10.57;;;5.83;;
10430;SDS011;5262;59.958;17.726;2022-11-15T03:34:41;8.87;;;5.27;;
10430;SDS011;5262;59.958;17.726;2022-11-15T03:37:12;10.93;;;5.23;;
10430;SDS011;5262;59.958;17.726;2022-11-15T03:39:40;7.60;;;4.77;;
10430;SDS011;5262;59.958;17.726;2022-11-15T03:45:08;7.80;;;4.80;;
10430;SDS011;5262;59.958;17.726;2022-11-15T03:50:22;6.97;;;4.20;;
10430;SDS011;5262;59.958;17.726;2022-11-15T03:52:49;6.37;;;4.03;;
10430;SDS011;5262;59.958;17.726;2022-11-15T03:55:17;9.00;;;4.30;;
10430;SDS011;5262;59.958;17.726;2022-11-15T03:57:44;10.83;;;4.43;;
10430;SDS011;5262;59.958;17.726;2022-11-15T04:00:11;6.57;;;4.33;;
10430;SDS011;5262;59.958;17.726;2022-11-15T04:02:37;8.70;;;3.50;;
10430;SDS011;5262;59.958;17.726;2022-11-15T04:05:03;6.87;;;3.73;;
10430;SDS011;5262;59.958;17.726;2022-11-15T04:07:29;6.17;;;3.93;;
10430;SDS011;5262;59.958;17.726;2022-11-15T04:09:54;8.27;;;3.43;;
10430;SDS011;5262;59.958;17.726;2022-11-15T04:12:31;6.80;;;3.23;;
10430;SDS011;5262;59.958;17.726;2022-11-15T04:15:04;6.67;;;3.17;;
10430;SDS011;5262;59.958;17.726;2022-11-15T04:17:32;5.93;;;3.20;;
10430;SDS011;5262;59.958;17.726;2022-11-15T04:23:04;8.10;;;2.87;;
10430;SDS011;5262;59.958;17.726;2022-11-15T04:25:51;6.53;;;2.40;;
10430;SDS011;5262;59.958;17.726;2022-11-15T04:28:20;4.90;;;2.83;;
10430;SDS011;5262;59.958;17.726;2022-11-15T04:30:46;7.30;;;2.53;;
10430;SDS011;5262;59.958;17.726;2022-11-15T04:33:12;3.37;;;2.23;;
10430;SDS011;5262;59.958;17.726;2022-11-15T04:35:38;7.10;;;2.43;;
10430;SDS011;5262;59.958;17.726;2022-11-15T04:38:05;7.23;;;2.40;;
10430;SDS011;5262;59.958;17.726;2022-11-15T04:40:32;3.00;;;1.80;;
10430;SDS011;5262;59.958;17.726;2022-11-15T04:42:58;7.87;;;2.20;;
10430;SDS011;5262;59.958;17.726;2022-11-15T04:45:23;3.77;;;2.17;;
10430;SDS011;5262;59.958;17.726;2022-11-15T04:47:49;5.40;;;1.80;;
10430;SDS011;5262;59.958;17.726;2022-11-15T04:50:15;3.90;;;1.53;;
10430;SDS011;5262;59.958;17.726;2022-11-15T04:52:41;4.13;;;1.60;;
10430;SDS011;5262;59.958;17.726;2022-11-15T04:55:09;8.03;;;1.30;;
10430;SDS011;5262;59.958;17.726;2022-11-15T04:57:35;7.10;;;1.90;;
10430;SDS011;5262;59.958;17.726;2022-11-15T05:00:02;5.83;;;1.90;;
10430;SDS011;5262;59.958;17.726;2022-11-15T05:02:29;7.43;;;1.40;;
10430;SDS011;5262;59.958;17.726;2022-11-15T05:05:15;5.70;;;1.40;;
10430;SDS011;5262;59.958;17.726;2022-11-15T05:07:41;2.47;;;1.23;;
10430;SDS011;5262;59.958;17.726;2022-11-15T05:10:06;6.57;;;1.33;;
10430;SDS011;5262;59.958;17.726;2022-11-15T05:12:32;3.93;;;1.30;;
10430;SDS011;5262;59.958;17.726;2022-11-15T05:14:58;3.57;;;1.00;;
10430;SDS011;5262;59.958;17.726;2022-11-15T05:17:23;3.07;;;1.10;;
10430;SDS011;5262;59.958;17.726;2022-11-15T05:19:49;3.20;;;0.87;;
10430;SDS011;5262;59.958;17.726;2022-11-15T05:22:16;1.47;;;0.70;;
10430;SDS011;5262;59.958;17.726;2022-11-15T05:24:43;3.67;;;0.80;;
10430;SDS011;5262;59.958;17.726;2022-11-15T05:27:08;3.03;;;0.80;;
10430;SDS011;5262;59.958;17.726;2022-11-15T05:29:34;7.87;;;1.50;;
10430;SDS011;5262;59.958;17.726;2022-11-15T05:31:59;4.90;;;1.20;;
10430;SDS011;5262;59.958;17.726;2022-11-15T05:34:25;6.53;;;1.10;;
10430;SDS011;5262;59.958;17.726;2022-11-15T05:36:52;8.53;;;1.20;;
10430;SDS011;5262;59.958;17.726;2022-11-15T05:39:18;2.20;;;0.90;;
10430;SDS011;5262;59.958;17.726;2022-11-15T05:41:44;2.27;;;0.90;;
10430;SDS011;5262;59.958;17.726;2022-11-15T05:44:14;3.20;;;0.90;;
10430;SDS011;5262;59.958;17.726;2022-11-15T05:46:42;4.70;;;1.03;;
10430;SDS011;5262;59.958;17.726;2022-11-15T05:49:09;2.67;;;1.13;;
10430;SDS011;5262;59.958;17.726;2022-11-15T05:51:38;5.47;;;1.13;;
10430;SDS011;5262;59.958;17.726;2022-11-15T05:54:04;2.37;;;0.83;;
10430;SDS011;5262;59.958;17.726;2022-11-15T05:56:30;5.43;;;1.33;;
10430;SDS011;5262;59.958;17.726;2022-11-15T05:58:56;5.40;;;1.20;;
10430;SDS011;5262;59.958;17.726;2022-11-15T06:01:23;3.90;;;1.43;;
10430;SDS011;5262;59.958;17.726;2022-11-15T06:03:51;4.17;;;1.07;;
10430;SDS011;5262;59.958;17.726;2022-11-15T06:06:17;5.47;;;1.40;;
10430;SDS011;5262;59.958;17.726;2022-11-15T06:08:42;3.17;;;1.43;;
10430;SDS011;5262;59.958;17.726;2022-11-15T06:11:08;3.47;;;1.30;;
10430;SDS011;5262;59.958;17.726;2022-11-15T06:13:34;5.30;;;1.63;;
10430;SDS011;5262;59.958;17.726;2022-11-15T06:15:59;4.00;;;1.47;;
10430;SDS011;5262;59.958;17.726;2022-11-15T06:18:25;4.13;;;1.20;;
10430;SDS011;5262;59.958;17.726;2022-11-15T06:20:51;3.90;;;1.47;;
10430;SDS011;5262;59.958;17.726;2022-11-15T06:23:17;2.43;;;1.30;;
10430;SDS011;5262;59.958;17.726;2022-11-15T06:25:43;4.87;;;1.70;;
10430;SDS011;5262;59.958;17.726;2022-11-15T06:28:08;2.13;;;1.20;;
10430;SDS011;5262;59.958;17.726;2022-11-15T06:30:34;4.53;;;1.30;;
10430;SDS011;5262;59.958;17.726;2022-11-15T06:33:04;4.17;;;1.23;;
10430;SDS011;5262;59.958;17.726;2022-11-15T06:35:30;6.40;;;1.40;;
10430;SDS011;5262;59.958;17.726;2022-11-15T06:38:03;3.93;;;1.27;;
10430;SDS011;5262;59.958;17.726;2022-11-15T06:40:30;3.10;;;1.10;;
10430;SDS011;5262;59.958;17.726;2022-11-15T06:42:58;5.40;;;1.50;;
10430;SDS011;5262;59.958;17.726;2022-11-15T06:45:24;2.63;;;1.30;;
10430;SDS011;5262;59.958;17.726;2022-11-15T06:47:50;4.20;;;1.27;;
10430;SDS011;5262;59.958;17.726;2022-11-15T06:50:16;3.27;;;1.90;;
10430;SDS011;5262;59.958;17.726;2022-11-15T06:52:42;2.93;;;1.40;;
10430;SDS011;5262;59.958;17.726;2022-11-15T06:55:08;3.63;;;1.30;;
10430;SDS011;5262;59.958;17.726;2022-11-15T06:57:34;2.03;;;1.10;;
10430;SDS011;5262;59.958;17.726;2022-11-15T07:00:00;5.53;;;1.80;;
10430;SDS011;5262;59.958;17.726;2022-11-15T07:02:27;3.90;;;1.47;;
10430;SDS011;5262;59.958;17.726;2022-11-15T07:04:53;3.50;;;1.50;;
10430;SDS011;5262;59.958;17.726;2022-11-15T07:07:19;6.33;;;1.43;;
10430;SDS011;5262;59.958;17.726;2022-11-15T07:09:44;3.10;;;1.20;;
10430;SDS011;5262;59.958;17.726;2022-11-15T07:12:10;3.80;;;1.33;;
10430;SDS011;5262;59.958;17.726;2022-11-15T07:14:36;4.77;;;1.23;;
10430;SDS011;5262;59.958;17.726;2022-11-15T07:17:03;3.63;;;1.00;;
10430;SDS011;5262;59.958;17.726;2022-11-15T07:19:30;1.87;;;1.40;;
10430;SDS011;5262;59.958;17.726;2022-11-15T07:21:55;4.70;;;1.20;;
10430;SDS011;5262;59.958;17.726;2022-11-15T07:24:21;1.63;;;1.10;;
10430;SDS011;5262;59.958;17.726;2022-11-15T07:26:47;2.97;;;1.60;;
10430;SDS011;5262;59.958;17.726;2022-11-15T07:29:12;4.37;;;1.43;;
10430;SDS011;5262;59.958;17.726;2022-11-15T07:31:38;4.47;;;1.40;;
10430;SDS011;5262;59.958;17.726;2022-11-15T07:34:04;7.03;;;1.77;;
10430;SDS011;5262;59.958;17.726;2022-11-15T07:36:29;3.70;;;1.50;;
10430;SDS011;5262;59.958;17.726;2022-11-15T07:38:55;4.80;;;1.63;;
10430;SDS011;5262;59.958;17.726;2022-11-15T07:41:21;4.03;;;1.40;;
10430;SDS011;5262;59.958;17.726;2022-11-15T07:43:47;2.60;;;0.90;;
10430;SDS011;5262;59.958;17.726;2022-11-15T07:46:15;2.77;;;1.30;;
10430;SDS011;5262;59.958;17.726;2022-11-15T07:48:41;2.63;;;1.13;;
10430;SDS011;5262;59.958;17.726;2022-11-15T07:51:07;3.17;;;1.00;;
10430;SDS011;5262;59.958;17.726;2022-11-15T07:53:36;1.90;;;1.00;;
10430;SDS011;5262;59.958;17.726;2022-11-15T07:56:01;3.33;;;0.93;;
10430;SDS011;5262;59.958;17.726;2022-11-15T07:58:27;2.97;;;0.90;;
10430;SDS011;5262;59.958;17.726;2022-11-15T08:00:53;4.47;;;1.20;;
10430;SDS011;5262;59.958;17.726;2022-11-15T08:03:18;3.17;;;1.10;;
10430;SDS011;5262;59.958;17.726;2022-11-15T08:05:49;4.37;;;1.13;;
10430;SDS011;5262;59.958;17.726;2022-11-15T08:08:16;3.07;;;1.10;;
10430;SDS011;5262;59.958;17.726;2022-11-15T08:10:41;2.60;;;1.00;;
10430;SDS011;5262;59.958;17.726;2022-11-15T08:13:08;3.07;;;0.70;;
10430;SDS011;5262;59.958;17.726;2022-11-15T08:15:35;3.07;;;1.10;;
10430;SDS011;5262;59.958;17.726;2022-11-15T08:18:14;3.73;;;1.00;;
10430;SDS011;5262;59.958;17.726;2022-11-15T08:20:41;3.60;;;0.90;;
10430;SDS011;5262;59.958;17.726;2022-11-15T08:23:08;2.70;;;1.00;;
10430;SDS011;5262;59.958;17.726;2022-11-15T08:25:36;2.80;;;1.20;;
10430;SDS011;5262;59.958;17.726;2022-11-15T08:28:03;4.30;;;1.17;;
10430;SDS011;5262;59.958;17.726;2022-11-15T08:30:30;3.27;;;1.10;;
10430;SDS011;5262;59.958;17.726;2022-11-15T08:32:59;2.97;;;0.87;;
10430;SDS011;5262;59.958;17.726;2022-11-15T08:35:24;2.40;;;0.50;;
10430;SDS011;5262;59.958;17.726;2022-11-15T08:37:52;2.80;;;0.93;;
10430;SDS011;5262;59.958;17.726;2022-11-15T08:40:18;2.00;;;0.77;;
10430;SDS011;5262;59.958;17.726;2022-11-15T08:42:47;3.43;;;0.60;;
10430;SDS011;5262;59.958;17.726;2022-11-15T08:45:13;3.20;;;0.50;;
10430;SDS011;5262;59.958;17.726;2022-11-15T08:47:39;2.27;;;0.73;;
10430;SDS011;5262;59.958;17.726;2022-11-15T08:50:05;4.00;;;0.70;;
10430;SDS011;5262;59.958;17.726;2022-11-15T08:52:31;2.30;;;0.70;;
10430;SDS011;5262;59.958;17.726;2022-11-15T08:54:57;2.30;;;0.70;;
10430;SDS011;5262;59.958;17.726;2022-11-15T08:57:23;4.57;;;0.90;;
10430;SDS011;5262;59.958;17.726;2022-11-15T08:59:48;4.30;;;0.77;;
10430;SDS011;5262;59.958;17.726;2022-11-15T09:02:14;3.07;;;0.60;;
10430;SDS011;5262;59.958;17.726;2022-11-15T09:04:41;1.53;;;0.60;;
10430;SDS011;5262;59.958;17.726;2022-11-15T09:07:08;1.17;;;0.63;;
10430;SDS011;5262;59.958;17.726;2022-11-15T09:09:37;2.07;;;0.57;;
10430;SDS011;5262;59.958;17.726;2022-11-15T09:12:03;6.53;;;1.30;;
10430;SDS011;5262;59.958;17.726;2022-11-15T09:14:30;2.27;;;0.63;;
10430;SDS011;5262;59.958;17.726;2022-11-15T09:16:56;2.53;;;0.47;;
10430;SDS011;5262;59.958;17.726;2022-11-15T09:19:22;1.57;;;0.33;;
10430;SDS011;5262;59.958;17.726;2022-11-15T09:21:47;1.90;;;0.60;;
10430;SDS011;5262;59.958;17.726;2022-11-15T09:24:13;1.60;;;0.50;;
10430;SDS011;5262;59.958;17.726;2022-11-15T09:26:39;2.83;;;0.60;;
10430;SDS011;5262;59.958;17.726;2022-11-15T09:29:05;1.03;;;0.40;;
10430;SDS011;5262;59.958;17.726;2022-11-15T09:31:31;4.27;;;0.70;;
10430;SDS011;5262;59.958;17.726;2022-11-15T09:33:57;3.00;;;0.50;;
10430;SDS011;5262;59.958;17.726;2022-11-15T09:36:23;2.30;;;0.73;;
10430;SDS011;5262;59.958;17.726;2022-11-15T09:38:49;3.40;;;0.63;;
10430;SDS011;5262;59.958;17.726;2022-11-15T09:46:27;0.80;;;0.60;;
10430;SDS011;5262;59.958;17.726;2022-11-15T09:49:03;1.57;;;0.60;;
10430;SDS011;5262;59.958;17.726;2022-11-15T09:56:47;0.93;;;0.30;;
10430;SDS011;5262;59.958;17.726;2022-11-15T10:04:45;1.57;;;0.40;;
10430;SDS011;5262;59.958;17.726;2022-11-15T10:07:15;1.53;;;0.53;;
10430;SDS011;5262;59.958;17.726;2022-11-15T10:09:51;3.73;;;0.70;;
10430;SDS011;5262;59.958;17.726;2022-11-15T10:12:22;4.23;;;0.63;;
10430;SDS011;5262;59.958;17.726;2022-11-15T10:14:49;1.20;;;0.70;;
10430;SDS011;5262;59.958;17.726;2022-11-15T10:20:26;1.80;;;0.60;;
10430;SDS011;5262;59.958;17.726;2022-11-15T10:22:55;1.73;;;0.60;;
10430;SDS011;5262;59.958;17.726;2022-11-15T10:25:31;2.07;;;0.70;;
10430;SDS011;5262;59.958;17.726;2022-11-15T10:28:05;3.07;;;0.77;;
10430;SDS011;5262;59.958;17.726;2022-11-15T10:30:49;2.53;;;0.40;;
10430;SDS011;5262;59.958;17.726;2022-11-15T10:36:14;1.57;;;0.67;;
10430;SDS011;5262;59.958;17.726;2022-11-15T10:44:03;3.37;;;0.57;;
10430;SDS011;5262;59.958;17.726;2022-11-15T10:46:40;3.20;;;0.87;;
10430;SDS011;5262;59.958;17.726;2022-11-15T10:49:17;4.57;;;0.70;;
10430;SDS011;5262;59.958;17.726;2022-11-15T10:54:43;2.77;;;0.70;;
10430;SDS011;5262;59.958;17.726;2022-11-15T10:59:45;3.87;;;0.90;;
10430;SDS011;5262;59.958;17.726;2022-11-15T11:04:59;4.10;;;0.90;;
10430;SDS011;5262;59.958;17.726;2022-11-15T11:07:27;4.23;;;0.80;;
10430;SDS011;5262;59.958;17.726;2022-11-15T11:09:59;1.53;;;0.50;;
10430;SDS011;5262;59.958;17.726;2022-11-15T11:12:31;2.73;;;0.70;;
10430;SDS011;5262;59.958;17.726;2022-11-15T11:14:59;2.03;;;0.40;;
10430;SDS011;5262;59.958;17.726;2022-11-15T11:17:32;1.17;;;0.40;;
10430;SDS011;5262;59.958;17.726;2022-11-15T11:20:23;1.30;;;0.60;;
10430;SDS011;5262;59.958;17.726;2022-11-15T11:29:02;2.53;;;0.70;;
10430;SDS011;5262;59.958;17.726;2022-11-15T11:51:02;3.40;;;0.73;;
10430;SDS011;5262;59.958;17.726;2022-11-15T11:53:52;1.33;;;0.60;;
10430;SDS011;5262;59.958;17.726;2022-11-15T11:56:29;0.87;;;0.50;;
10430;SDS011;5262;59.958;17.726;2022-11-15T11:59:11;2.07;;;0.40;;
10430;SDS011;5262;59.958;17.726;2022-11-15T12:01:58;3.10;;;0.50;;
10430;SDS011;5262;59.958;17.726;2022-11-15T12:04:38;2.60;;;0.60;;
10430;SDS011;5262;59.958;17.726;2022-11-15T12:07:27;1.67;;;0.43;;
10430;SDS011;5262;59.958;17.726;2022-11-15T12:13:09;1.27;;;0.50;;
10430;SDS011;5262;59.958;17.726;2022-11-15T12:16:01;1.47;;;0.50;;
10430;SDS011;5262;59.958;17.726;2022-11-15T12:18:36;1.17;;;0.50;;
10430;SDS011;5262;59.958;17.726;2022-11-15T12:23:55;1.70;;;0.87;;
10430;SDS011;5262;59.958;17.726;2022-11-15T12:26:27;2.43;;;0.40;;
10430;SDS011;5262;59.958;17.726;2022-11-15T12:29:19;1.00;;;0.50;;
10430;SDS011;5262;59.958;17.726;2022-11-15T12:32:02;2.07;;;0.40;;
10430;SDS011;5262;59.958;17.726;2022-11-15T12:34:30;1.93;;;0.50;;
10430;SDS011;5262;59.958;17.726;2022-11-15T12:45:56;2.57;;;0.50;;
10430;SDS011;5262;59.958;17.726;2022-11-15T12:51:00;0.87;;;0.40;;
10430;SDS011;5262;59.958;17.726;2022-11-15T12:53:27;3.53;;;0.73;;
10430;SDS011;5262;59.958;17.726;2022-11-15T12:58:40;2.87;;;0.70;;
10430;SDS011;5262;59.958;17.726;2022-11-15T13:19:48;4.67;;;0.70;;
10430;SDS011;5262;59.958;17.726;2022-11-15T13:22:24;1.83;;;0.47;;
10430;SDS011;5262;59.958;17.726;2022-11-15T13:25:19;1.27;;;0.30;;
10430;SDS011;5262;59.958;17.726;2022-11-15T13:27:52;2.43;;;0.60;;
10430;SDS011;5262;59.958;17.726;2022-11-15T13:30:23;3.23;;;0.53;;
10430;SDS011;5262;59.958;17.726;2022-11-15T13:32:50;3.87;;;0.73;;
10430;SDS011;5262;59.958;17.726;2022-11-15T13:35:21;1.00;;;0.57;;
10430;SDS011;5262;59.958;17.726;2022-11-15T13:37:49;2.60;;;0.60;;
10430;SDS011;5262;59.958;17.726;2022-11-15T13:42:47;1.07;;;0.40;;
10430;SDS011;5262;59.958;17.726;2022-11-15T13:45:13;2.90;;;0.50;;
10430;SDS011;5262;59.958;17.726;2022-11-15T13:47:41;2.50;;;0.90;;
10430;SDS011;5262;59.958;17.726;2022-11-15T13:50:11;1.67;;;0.50;;
10430;SDS011;5262;59.958;17.726;2022-11-15T13:52:37;2.23;;;0.60;;
10430;SDS011;5262;59.958;17.726;2022-11-15T13:57:57;1.77;;;0.60;;
10430;SDS011;5262;59.958;17.726;2022-11-15T14:00:38;1.23;;;0.63;;
10430;SDS011;5262;59.958;17.726;2022-11-15T14:03:08;1.97;;;0.63;;
10430;SDS011;5262;59.958;17.726;2022-11-15T14:05:39;0.33;;;0.20;;
10430;SDS011;5262;59.958;17.726;2022-11-15T14:08:22;1.60;;;0.40;;
10430;SDS011;5262;59.958;17.726;2022-11-15T14:10:48;2.53;;;0.60;;
10430;SDS011;5262;59.958;17.726;2022-11-15T14:16:32;1.63;;;0.43;;
10430;SDS011;5262;59.958;17.726;2022-11-15T14:19:02;2.60;;;0.80;;
10430;SDS011;5262;59.958;17.726;2022-11-15T14:21:29;1.07;;;0.37;;
10430;SDS011;5262;59.958;17.726;2022-11-15T14:24:17;2.70;;;0.63;;
10430;SDS011;5262;59.958;17.726;2022-11-15T14:26:44;2.20;;;0.70;;
10430;SDS011;5262;59.958;17.726;2022-11-15T14:29:27;2.30;;;0.70;;
10430;SDS011;5262;59.958;17.726;2022-11-15T14:31:54;6.90;;;0.80;;
10430;SDS011;5262;59.958;17.726;2022-11-15T14:34:39;2.87;;;0.80;;
10430;SDS011;5262;59.958;17.726;2022-11-15T14:37:04;1.40;;;0.73;;
10430;SDS011;5262;59.958;17.726;2022-11-15T14:39:33;1.93;;;0.70;;
10430;SDS011;5262;59.958;17.726;2022-11-15T14:41:58;3.80;;;0.90;;
10430;SDS011;5262;59.958;17.726;2022-11-15T14:44:24;4.67;;;1.67;;
10430;SDS011;5262;59.958;17.726;2022-11-15T14:46:50;1.07;;;0.60;;
10430;SDS011;5262;59.958;17.726;2022-11-15T14:49:15;1.40;;;0.57;;
10430;SDS011;5262;59.958;17.726;2022-11-15T14:51:41;2.10;;;0.70;;
10430;SDS011;5262;59.958;17.726;2022-11-15T14:54:09;3.70;;;0.97;;
10430;SDS011;5262;59.958;17.726;2022-11-15T14:56:35;2.17;;;0.57;;
10430;SDS011;5262;59.958;17.726;2022-11-15T14:59:01;3.67;;;1.00;;
10430;SDS011;5262;59.958;17.726;2022-11-15T15:01:26;4.90;;;0.70;;
10430;SDS011;5262;59.958;17.726;2022-11-15T15:03:53;2.67;;;0.70;;
10430;SDS011;5262;59.958;17.726;2022-11-15T15:06:22;3.00;;;0.67;;
10430;SDS011;5262;59.958;17.726;2022-11-15T15:08:48;2.67;;;0.80;;
10430;SDS011;5262;59.958;17.726;2022-11-15T15:11:16;2.73;;;1.20;;
10430;SDS011;5262;59.958;17.726;2022-11-15T15:13:47;2.13;;;0.90;;
10430;SDS011;5262;59.958;17.726;2022-11-15T15:16:13;3.83;;;1.00;;
10430;SDS011;5262;59.958;17.726;2022-11-15T15:18:38;3.03;;;1.00;;
10430;SDS011;5262;59.958;17.726;2022-11-15T15:21:04;2.60;;;0.97;;
10430;SDS011;5262;59.958;17.726;2022-11-15T15:23:43;2.20;;;0.60;;
10430;SDS011;5262;59.958;17.726;2022-11-15T15:26:09;1.90;;;0.90;;
10430;SDS011;5262;59.958;17.726;2022-11-15T15:28:34;3.40;;;0.70;;
10430;SDS011;5262;59.958;17.726;2022-11-15T15:31:00;1.27;;;0.60;;
10430;SDS011;5262;59.958;17.726;2022-11-15T15:33:26;0.87;;;0.70;;
10430;SDS011;5262;59.958;17.726;2022-11-15T15:35:52;1.80;;;0.80;;
10430;SDS011;5262;59.958;17.726;2022-11-15T15:38:17;1.17;;;0.70;;
10430;SDS011;5262;59.958;17.726;2022-11-15T15:40:43;1.63;;;0.63;;
10430;SDS011;5262;59.958;17.726;2022-11-15T15:43:09;2.30;;;0.60;;
10430;SDS011;5262;59.958;17.726;2022-11-15T15:45:36;3.23;;;0.50;;
10430;SDS011;5262;59.958;17.726;2022-11-15T15:48:04;1.50;;;0.57;;
10430;SDS011;5262;59.958;17.726;2022-11-15T15:50:33;2.27;;;0.80;;
10430;SDS011;5262;59.958;17.726;2022-11-15T15:53:00;1.10;;;0.60;;
10430;SDS011;5262;59.958;17.726;2022-11-15T15:55:27;1.47;;;0.63;;
10430;SDS011;5262;59.958;17.726;2022-11-15T15:57:53;4.10;;;0.97;;
10430;SDS011;5262;59.958;17.726;2022-11-15T16:00:20;1.13;;;0.57;;
10430;SDS011;5262;59.958;17.726;2022-11-15T16:02:51;2.37;;;0.70;;
10430;SDS011;5262;59.958;17.726;2022-11-15T16:05:17;2.70;;;0.80;;
10430;SDS011;5262;59.958;17.726;2022-11-15T16:07:43;2.77;;;0.80;;
10430;SDS011;5262;59.958;17.726;2022-11-15T16:12:49;2.90;;;0.80;;
10430;SDS011;5262;59.958;17.726;2022-11-15T16:15:16;1.13;;;0.60;;
10430;SDS011;5262;59.958;17.726;2022-11-15T16:17:47;2.43;;;0.90;;
10430;SDS011;5262;59.958;17.726;2022-11-15T16:20:21;3.00;;;0.70;;
10430;SDS011;5262;59.958;17.726;2022-11-15T16:23:12;1.80;;;0.63;;
10430;SDS011;5262;59.958;17.726;2022-11-15T16:25:47;2.20;;;0.60;;
10430;SDS011;5262;59.958;17.726;2022-11-15T16:28:24;1.30;;;0.63;;
10430;SDS011;5262;59.958;17.726;2022-11-15T16:31:05;2.33;;;0.80;;
10430;SDS011;5262;59.958;17.726;2022-11-15T16:33:33;2.00;;;0.73;;
10430;SDS011;5262;59.958;17.726;2022-11-15T16:35:59;1.93;;;0.70;;
10430;SDS011;5262;59.958;17.726;2022-11-15T16:38:25;0.60;;;0.50;;
10430;SDS011;5262;59.958;17.726;2022-11-15T16:40:51;2.10;;;0.70;;
10430;SDS011;5262;59.958;17.726;2022-11-15T16:43:17;2.87;;;0.67;;
10430;SDS011;5262;59.958;17.726;2022-11-15T16:45:42;2.63;;;0.60;;
10430;SDS011;5262;59.958;17.726;2022-11-15T16:48:21;1.87;;;0.47;;
10430;SDS011;5262;59.958;17.726;2022-11-15T16:50:49;2.47;;;0.90;;
10430;SDS011;5262;59.958;17.726;2022-11-15T16:53:15;5.73;;;0.90;;
10430;SDS011;5262;59.958;17.726;2022-11-15T16:55:41;5.53;;;1.00;;
10430;SDS011;5262;59.958;17.726;2022-11-15T16:58:07;3.70;;;0.77;;
10430;SDS011;5262;59.958;17.726;2022-11-15T17:00:34;1.90;;;0.60;;
10430;SDS011;5262;59.958;17.726;2022-11-15T17:02:59;0.90;;;0.67;;
10430;SDS011;5262;59.958;17.726;2022-11-15T17:05:25;1.90;;;0.60;;
10430;SDS011;5262;59.958;17.726;2022-11-15T17:07:54;1.00;;;0.70;;
10430;SDS011;5262;59.958;17.726;2022-11-15T17:10:20;3.03;;;0.60;;
10430;SDS011;5262;59.958;17.726;2022-11-15T17:12:50;1.33;;;0.60;;
10430;SDS011;5262;59.958;17.726;2022-11-15T17:15:16;3.37;;;0.60;;
10430;SDS011;5262;59.958;17.726;2022-11-15T17:17:43;4.03;;;1.03;;
10430;SDS011;5262;59.958;17.726;2022-11-15T17:20:15;2.83;;;0.70;;
10430;SDS011;5262;59.958;17.726;2022-11-15T17:22:42;1.73;;;0.70;;
10430;SDS011;5262;59.958;17.726;2022-11-15T17:25:08;1.67;;;0.43;;
10430;SDS011;5262;59.958;17.726;2022-11-15T17:27:34;2.07;;;0.80;;
10430;SDS011;5262;59.958;17.726;2022-11-15T17:29:59;2.70;;;0.67;;